createdAt,value
2022-10-24T00:00:01.757Z,100250.61
2022-10-24T00:02:36.373Z,100249.25
2022-10-24T00:05:10.152Z,100253.33
2022-10-24T00:07:43.959Z,100260.47
2022-10-24T00:10:17.654Z,100256.39
2022-10-24T00:12:52.055Z,100250.95
2022-10-24T00:15:25.439Z,100250.23
2022-10-24T00:17:58.738Z,100246.44
2022-10-24T00:20:32.857Z,100252.05
2022-10-24T00:23:06.582Z,100252.34
2022-10-24T00:25:39.341Z,100258.42
2022-10-24T00:28:13.180Z,100265.36
2022-10-24T00:30:46.387Z,100266.38
2022-10-24T00:33:19.109Z,100267.30
2022-10-24T00:35:51.953Z,100262.67
2022-10-24T00:38:25.694Z,100264.95
2022-10-24T00:40:59.241Z,100269.45
2022-10-24T00:43:31.843Z,100261.86
2022-10-24T00:46:04.655Z,100256.50
2022-10-24T00:48:50.607Z,100253.38
2022-10-24T00:51:30.184Z,100255.84
2022-10-24T00:54:08.965Z,100255.50
2022-10-24T00:56:45.850Z,100255.50
2022-10-24T00:59:19.995Z,100261.29
2022-10-24T01:01:52.883Z,100256.44
2022-10-24T01:04:26.692Z,100250.52
2022-10-24T01:07:22.040Z,100248.77
2022-10-24T01:10:19.864Z,100247.06
2022-10-24T01:13:24.330Z,100262.64
2022-10-24T01:16:14.857Z,100257.87
2022-10-24T01:19:32.966Z,100254.34
2022-10-24T01:22:18.563Z,100255.22
2022-10-24T01:25:01.679Z,100265.81
2022-10-24T01:28:00.567Z,100262.46
2022-10-24T01:30:38.407Z,100262.67
2022-10-24T01:33:18.982Z,100267.97
2022-10-24T01:36:12.971Z,100269.67
2022-10-24T01:38:55.867Z,100272.05
2022-10-24T01:41:30.285Z,100267.83
2022-10-24T01:44:16.692Z,100271.03
2022-10-24T01:46:59.813Z,100265.94
2022-10-24T01:49:36.748Z,100273.95
2022-10-24T01:52:33.071Z,100271.48
2022-10-24T01:55:06.597Z,100266.17
2022-10-24T01:57:40.002Z,100266.52
2022-10-24T02:00:35.845Z,100268.96
2022-10-24T02:03:23.440Z,100268.61
2022-10-24T02:06:04.365Z,100261.58
2022-10-24T02:08:41.744Z,100255.45
2022-10-24T02:11:14.321Z,100253.21
2022-10-24T02:13:58.776Z,100257.02
2022-10-24T02:16:33.554Z,100260.45
2022-10-24T02:19:06.683Z,100260.31
2022-10-24T02:21:56.382Z,100269.83
2022-10-24T02:24:40.325Z,100275.62
2022-10-24T02:27:23.901Z,100277.98
2022-10-24T02:30:15.145Z,100274.55
2022-10-24T02:32:55.209Z,100275.55
2022-10-24T02:35:53.655Z,100284.34
2022-10-24T02:38:39.653Z,100284.48
2022-10-24T02:41:16.399Z,100290.12
2022-10-24T02:43:50.615Z,100287.06
2022-10-24T02:46:24.530Z,100280.75
2022-10-24T02:49:00.263Z,100279.92
2022-10-24T02:51:36.598Z,100285.70
2022-10-24T02:54:11.305Z,100285.70
2022-10-24T02:56:49.145Z,100292.70
2022-10-24T02:59:21.776Z,100294.94
2022-10-24T03:01:56.181Z,100296.64
2022-10-24T03:04:30.920Z,100300.38
2022-10-24T03:07:03.869Z,100298.81
2022-10-24T03:09:37.575Z,100298.43
2022-10-24T03:12:11.122Z,100301.67
2022-10-24T03:14:45.621Z,100296.23
2022-10-24T03:17:18.343Z,100295.36
2022-10-24T03:19:51.665Z,100304.39
2022-10-24T03:22:29.913Z,100302.65
2022-10-24T03:25:01.962Z,100302.94
2022-10-24T03:27:36.103Z,100306.66
2022-10-24T03:30:10.307Z,100307.01
2022-10-24T03:32:43.198Z,100301.22
2022-10-24T03:35:17.970Z,100308.69
2022-10-24T03:37:50.521Z,100299.66
2022-10-24T03:40:23.863Z,100297.08
2022-10-24T03:42:57.790Z,100305.58
2022-10-24T03:45:30.431Z,100305.58
2022-10-24T03:48:03.850Z,100300.53
2022-10-24T03:50:37.704Z,100301.71
2022-10-24T03:53:11.988Z,100306.31
2022-10-24T03:55:46.380Z,100308.02
2022-10-24T03:58:19.101Z,100308.23
2022-10-24T04:00:53.440Z,100306.38
2022-10-24T04:03:27.949Z,100303.17
2022-10-24T04:06:01.118Z,100304.01
2022-10-24T04:08:33.698Z,100304.67
2022-10-24T04:11:08.015Z,100307.53
2022-10-24T04:13:41.071Z,100307.53
2022-10-24T04:16:14.152Z,100298.99
2022-10-24T04:18:47.286Z,100301.22
2022-10-24T04:21:22.153Z,100302.23
2022-10-24T04:23:55.466Z,100306.66
2022-10-24T04:26:28.460Z,100306.17
2022-10-24T04:29:01.394Z,100310.74
2022-10-24T04:31:35.625Z,100315.83
2022-10-24T04:34:08.257Z,100321.75
2022-10-24T04:36:42.406Z,100319.04
2022-10-24T04:39:15.020Z,100319.04
2022-10-24T04:41:48.112Z,100326.36
2022-10-24T04:44:20.839Z,100332.49
2022-10-24T04:46:53.646Z,100330.78
2022-10-24T04:49:26.428Z,100328.06
2022-10-24T04:51:59.283Z,100331.13
2022-10-24T04:54:31.890Z,100336.71
2022-10-24T04:57:05.741Z,100337.38
2022-10-24T04:59:38.980Z,100338.20
2022-10-24T05:02:11.506Z,100349.30
2022-10-24T05:04:45.150Z,100341.87
2022-10-24T05:07:20.870Z,100342.81
2022-10-24T05:09:53.806Z,100345.59
2022-10-24T05:12:26.487Z,100349.60
2022-10-24T05:15:00.337Z,100352.91
2022-10-24T05:17:33.229Z,100353.50
2022-10-24T05:20:07.991Z,100360.50
2022-10-24T05:22:41.397Z,100360.57
2022-10-24T05:25:14.293Z,100366.46
2022-10-24T05:27:47.100Z,100364.44
2022-10-24T05:30:20.286Z,100371.44
2022-10-24T05:32:54.443Z,100370.95
2022-10-24T05:35:28.066Z,100376.11
2022-10-24T05:38:01.814Z,100387.59
2022-10-24T05:40:35.958Z,100384.41
2022-10-24T05:43:08.735Z,100381.98
2022-10-24T05:45:41.516Z,100380.83
2022-10-24T05:48:14.331Z,100381.27
2022-10-24T05:50:47.248Z,100388.13
2022-10-24T05:53:20.004Z,100389.21
2022-10-24T05:55:52.790Z,100390.14
2022-10-24T05:58:25.529Z,100392.58
2022-10-24T06:00:58.332Z,100395.02
2022-10-24T06:03:31.288Z,100400.20
2022-10-24T06:06:11.575Z,100401.09
2022-10-24T06:08:45.088Z,100400.95
2022-10-24T06:11:19.682Z,100402.41
2022-10-24T06:13:53.092Z,100402.41
2022-10-24T06:16:27.545Z,100401.59
2022-10-24T06:19:01.123Z,100397.51
2022-10-24T06:21:34.185Z,100396.44
2022-10-24T06:24:07.348Z,100405.83
2022-10-24T06:26:41.853Z,100405.67
2022-10-24T06:29:14.552Z,100403.16
2022-10-24T06:31:47.872Z,100407.97
2022-10-24T06:36:54.321Z,100413.77
2022-10-24T06:39:27.276Z,100419.35
2022-10-24T06:42:03.145Z,100427.37
2022-10-24T06:44:37.059Z,100418.38
2022-10-24T06:47:09.922Z,100415.94
2022-10-24T06:49:43.548Z,100414.43
2022-10-24T06:52:16.439Z,100416.72
2022-10-24T06:54:49.770Z,100416.43
2022-10-24T06:57:22.810Z,100420.19
2022-10-24T06:59:55.799Z,100421.79
2022-10-24T07:02:29.294Z,100418.77
2022-10-24T07:05:05.763Z,100415.38
2022-10-24T07:07:42.089Z,100419.32
2022-10-24T07:10:15.829Z,100417.81
2022-10-24T07:12:52.049Z,100420.73
2022-10-24T07:15:26.365Z,100417.03
2022-10-24T07:18:02.419Z,100420.69
2022-10-24T07:23:16.260Z,100426.37
2022-10-24T07:25:50.718Z,100427.23
2022-10-24T07:28:26.378Z,100426.52
2022-10-24T07:30:59.849Z,100421.55
2022-10-24T07:33:33.894Z,100416.48
2022-10-24T07:36:08.411Z,100415.81
2022-10-24T07:38:41.305Z,100417.61
2022-10-24T07:41:14.929Z,100425.34
2022-10-24T07:43:48.275Z,100419.75
2022-10-24T07:46:26.400Z,100427.34
2022-10-24T07:52:02.617Z,100428.17
2022-10-24T07:54:40.025Z,100421.41
2022-10-24T07:57:13.099Z,100419.03
2022-10-24T07:59:45.893Z,100416.16
2022-10-24T08:02:21.552Z,100416.87
2022-10-24T08:04:54.374Z,100417.80
2022-10-24T08:07:27.671Z,100420.42
2022-10-24T08:10:00.299Z,100418.77
2022-10-24T08:12:33.289Z,100414.00
2022-10-24T08:15:07.584Z,100421.34
2022-10-24T08:17:41.318Z,100427.48
2022-10-24T08:20:14.485Z,100431.23
2022-10-24T08:22:48.918Z,100434.45
2022-10-24T08:25:22.460Z,100436.53
2022-10-24T08:27:55.504Z,100437.94
2022-10-24T08:30:29.716Z,100440.17
2022-10-24T08:33:02.778Z,100437.94
2022-10-24T08:35:36.613Z,100440.67
2022-10-24T08:38:10.013Z,100432.72
2022-10-24T08:40:43.256Z,100435.79
2022-10-24T08:43:17.820Z,100429.66
2022-10-24T08:46:22.375Z,100425.99
2022-10-24T08:49:14.804Z,100429.83
2022-10-24T08:52:04.670Z,100428.59
2022-10-24T08:54:40.228Z,100425.59
2022-10-24T08:57:26.171Z,100428.29
2022-10-24T09:00:07.208Z,100428.89
2022-10-24T09:02:40.949Z,100427.76
2022-10-24T09:05:33.943Z,100424.95
2022-10-24T09:08:31.664Z,100425.33
2022-10-24T09:11:08.212Z,100426.58
2022-10-24T09:13:42.068Z,100423.37
2022-10-24T09:16:17.875Z,100422.73
2022-10-24T09:18:53.953Z,100433.66
2022-10-24T09:21:28.701Z,100421.21
2022-10-24T09:24:01.769Z,100423.02
2022-10-24T09:26:35.494Z,100420.69
2022-10-24T09:29:09.031Z,100420.52
2022-10-24T09:31:42.315Z,100415.22
2022-10-24T09:34:15.140Z,100408.86
2022-10-24T09:36:49.697Z,100409.98
2022-10-24T09:39:34.949Z,100411.08
2022-10-24T09:42:10.217Z,100409.64
2022-10-24T09:44:43.934Z,100406.05
2022-10-24T09:50:23.959Z,100404.98
2022-10-24T09:52:59.472Z,100407.05
2022-10-24T09:55:34.577Z,100413.41
2022-10-24T09:58:07.139Z,100412.72
2022-10-24T10:00:40.004Z,100417.05
2022-10-24T10:03:24.452Z,100414.81
2022-10-24T10:06:02.394Z,100419.77
2022-10-24T10:08:36.951Z,100411.52
2022-10-24T10:11:12.594Z,100411.34
2022-10-24T10:13:53.774Z,100407.72
2022-10-24T10:16:33.521Z,100409.25
2022-10-24T10:19:20.108Z,100411.00
2022-10-24T10:22:07.159Z,100417.52
2022-10-24T10:24:46.691Z,100413.90
2022-10-24T10:27:40.295Z,100405.79
2022-10-24T10:30:20.525Z,100412.61
2022-10-24T10:33:21.738Z,100405.77
2022-10-24T10:36:25.350Z,100400.16
2022-10-24T10:39:25.636Z,100401.58
2022-10-24T10:42:06.394Z,100399.48
2022-10-24T10:44:55.736Z,100402.28
2022-10-24T10:47:52.126Z,100412.41
2022-10-24T10:51:07.299Z,100409.97
2022-10-24T10:53:53.218Z,100398.33
2022-10-24T10:56:36.185Z,100393.73
2022-10-24T10:59:25.791Z,100391.36
2022-10-24T11:02:21.901Z,100389.02
2022-10-24T11:05:33.673Z,100390.26
2022-10-24T11:08:43.392Z,100403.95
2022-10-24T11:11:23.399Z,100402.92
2022-10-24T11:14:16.302Z,100400.89
2022-10-24T11:16:51.330Z,100399.84
2022-10-24T11:41:53.951Z,100398.96
2022-10-24T11:44:48.944Z,100401.93
2022-10-24T11:47:44.560Z,100403.48
2022-10-24T11:50:56.428Z,100401.42
2022-10-24T11:53:41.332Z,100397.38
2022-10-24T11:56:31.174Z,100398.98
2022-10-24T11:59:06.518Z,100390.13
2022-10-24T12:02:16.520Z,100392.32
2022-10-24T12:05:29.549Z,100382.09
2022-10-24T12:08:16.114Z,100377.67
2022-10-24T12:11:00.950Z,100368.84
2022-10-24T12:13:47.439Z,100358.95
2022-10-24T12:16:47.716Z,100362.42
2022-10-24T12:19:21.242Z,100365.54
2022-10-24T12:22:00.230Z,100358.34
2022-10-24T12:24:36.530Z,100360.24
2022-10-24T12:27:24.643Z,100363.80
2022-10-24T12:30:21.942Z,100366.03
2022-10-24T12:33:10.614Z,100382.59
2022-10-24T12:35:48.695Z,100396.93
2022-10-24T12:38:32.218Z,100395.20
2022-10-24T12:41:08.206Z,100397.25
2022-10-24T12:43:47.619Z,100397.27
2022-10-24T12:46:24.999Z,100381.23
2022-10-24T12:49:08.144Z,100367.57
2022-10-24T12:51:41.950Z,100367.57
2022-10-24T12:54:19.628Z,100355.59
2022-10-24T12:56:58.705Z,100352.36
2022-10-24T12:59:37.449Z,100346.02
2022-10-24T13:02:18.273Z,100344.98
2022-10-24T13:05:10.939Z,100349.63
2022-10-24T13:08:06.975Z,100358.66
2022-10-24T13:11:08.287Z,100343.62
2022-10-24T13:14:00.553Z,100349.95
2022-10-24T13:16:40.822Z,100348.09
2022-10-24T13:19:22.242Z,100351.15
2022-10-24T13:21:59.042Z,100345.99
2022-10-24T13:24:40.147Z,100345.61
2022-10-24T13:27:20.177Z,100346.43
2022-10-24T13:30:01.700Z,100343.20
2022-10-24T13:32:57.703Z,100354.13
2022-10-24T13:35:32.267Z,100359.60
2022-10-24T13:38:07.714Z,100358.57
2022-10-24T13:40:39.501Z,100366.76
2022-10-24T13:43:22.768Z,100360.95
2022-10-24T13:46:02.542Z,100363.67
2022-10-24T13:48:36.181Z,100370.12
2022-10-24T13:51:19.196Z,100366.34
2022-10-24T13:54:19.229Z,100363.39
2022-10-24T13:56:51.792Z,100352.13
2022-10-24T13:59:39.183Z,100358.74
2022-10-24T14:02:26.155Z,100367.79
2022-10-24T14:05:01.457Z,100372.53
2022-10-24T14:07:36.838Z,100369.22
2022-10-24T14:10:14.964Z,100366.47
2022-10-24T14:12:49.888Z,100373.61
2022-10-24T14:15:29.310Z,100369.09
2022-10-24T14:18:09.105Z,100370.25
2022-10-24T14:20:43.719Z,100372.09
2022-10-24T14:23:35.545Z,100373.05
2022-10-24T14:26:20.903Z,100369.27
2022-10-24T14:29:01.172Z,100375.02
2022-10-24T14:31:35.778Z,100376.81
2022-10-24T14:34:11.043Z,100369.41
2022-10-24T14:36:43.998Z,100369.34
2022-10-24T14:39:23.956Z,100366.20
2022-10-24T14:41:58.750Z,100357.30
2022-10-24T14:44:32.168Z,100342.59
2022-10-24T14:47:07.532Z,100338.66
2022-10-24T14:49:40.178Z,100337.08
2022-10-24T14:52:18.388Z,100343.21
2022-10-24T14:55:04.603Z,100345.56
2022-10-24T14:57:37.182Z,100352.05
2022-10-24T15:00:31.316Z,100352.02
2022-10-24T15:03:07.575Z,100364.86
2022-10-24T15:05:41.951Z,100381.84
2022-10-24T15:08:22.613Z,100381.80
2022-10-24T15:11:16.499Z,100382.59
2022-10-24T15:14:06.833Z,100387.52
2022-10-24T15:16:41.077Z,100391.75
2022-10-24T15:19:18.836Z,100398.38
2022-10-24T15:21:51.755Z,100405.64
2022-10-24T15:24:26.772Z,100412.42
2022-10-24T15:27:13.111Z,100411.20
2022-10-24T15:29:46.273Z,100416.28
2022-10-24T15:32:19.941Z,100406.20
2022-10-24T15:34:57.151Z,100394.77
2022-10-24T15:37:30.268Z,100389.54
2022-10-24T15:40:15.586Z,100392.12
2022-10-24T15:42:49.566Z,100398.78
2022-10-24T15:45:24.092Z,100392.12
2022-10-24T15:47:57.240Z,100398.06
2022-10-24T15:50:29.819Z,100410.63
2022-10-24T15:53:04.803Z,100406.05
2022-10-24T15:55:37.467Z,100399.72
2022-10-24T15:58:15.575Z,100401.09
2022-10-24T16:00:48.463Z,100409.98
2022-10-24T16:03:24.580Z,100400.07
2022-10-24T16:05:59.039Z,100400.07
2022-10-24T16:08:31.881Z,100389.02
2022-10-24T16:11:07.760Z,100389.02
2022-10-24T16:13:42.603Z,100394.84
2022-10-24T16:16:15.438Z,100398.21
2022-10-24T16:18:48.952Z,100403.81
2022-10-24T16:21:22.513Z,100409.77
2022-10-24T16:23:56.357Z,100400.79
2022-10-24T16:26:29.211Z,100400.64
2022-10-24T16:29:02.602Z,100397.61
2022-10-24T16:31:36.006Z,100402.20
2022-10-24T16:34:09.263Z,100398.63
2022-10-24T16:36:42.908Z,100397.77
2022-10-24T16:39:16.578Z,100413.10
2022-10-24T16:41:50.484Z,100413.63
2022-10-24T16:44:22.846Z,100399.92
2022-10-24T16:46:55.423Z,100402.30
2022-10-24T16:52:15.176Z,100403.24
2022-10-24T16:54:47.663Z,100390.98
2022-10-24T16:57:20.775Z,100384.11
2022-10-24T16:59:53.325Z,100390.88
2022-10-24T17:02:26.944Z,100385.43
2022-10-24T17:04:59.378Z,100383.20
2022-10-24T17:07:33.222Z,100389.86
2022-10-24T17:10:07.438Z,100399.78
2022-10-24T17:12:45.263Z,100401.14
2022-10-24T17:15:22.123Z,100405.23
2022-10-24T17:17:53.853Z,100404.52
2022-10-24T17:20:26.865Z,100406.89
2022-10-24T17:23:02.980Z,100405.67
2022-10-24T17:25:37.349Z,100397.27
2022-10-24T17:28:11.330Z,100387.19
2022-10-24T17:30:46.884Z,100391.08
2022-10-24T17:33:19.673Z,100385.11
2022-10-24T17:35:57.227Z,100377.45
2022-10-24T17:38:40.505Z,100377.08
2022-10-24T17:41:26.402Z,100377.45
2022-10-24T17:44:06.847Z,100371.63
2022-10-24T17:46:40.857Z,100370.56
2022-10-24T17:49:19.259Z,100368.86
2022-10-24T17:51:52.440Z,100369.00
2022-10-24T17:54:25.202Z,100363.06
2022-10-24T17:56:57.619Z,100360.98
2022-10-24T17:59:32.843Z,100361.42
2022-10-24T18:02:05.632Z,100357.62
2022-10-24T18:04:43.068Z,100356.70
2022-10-24T18:07:15.936Z,100353.30
2022-10-24T18:09:49.294Z,100350.23
2022-10-24T18:12:22.534Z,100342.20
2022-10-24T18:14:57.241Z,100331.30
2022-10-24T18:17:31.636Z,100337.73
2022-10-24T18:20:17.803Z,100342.34
2022-10-24T18:22:51.891Z,100341.48
2022-10-24T18:25:25.186Z,100329.86
2022-10-24T18:27:57.750Z,100330.38
2022-10-24T18:30:30.268Z,100341.05
2022-10-24T18:33:03.925Z,100340.85
2022-10-24T18:35:37.781Z,100341.14
2022-10-24T18:38:10.338Z,100337.88
2022-10-24T18:40:43.617Z,100347.91
2022-10-24T18:43:17.744Z,100346.84
2022-10-24T18:45:52.639Z,100339.97
2022-10-24T18:48:27.456Z,100341.42
2022-10-24T18:51:00.106Z,100343.57
2022-10-24T18:53:34.689Z,100349.56
2022-10-24T18:56:09.080Z,100359.53
2022-10-24T18:58:42.478Z,100356.74
2022-10-24T19:01:33.749Z,100360.91
2022-10-24T19:04:20.030Z,100367.52
2022-10-24T19:06:58.248Z,100363.86
2022-10-24T19:09:31.027Z,100366.52
2022-10-24T19:12:04.561Z,100360.35
2022-10-24T19:14:37.390Z,100363.70
2022-10-24T19:17:12.714Z,100361.51
2022-10-24T19:19:45.933Z,100369.01
2022-10-24T19:22:19.236Z,100364.44
2022-10-24T19:24:52.627Z,100367.45
2022-10-24T19:27:27.026Z,100368.59
2022-10-24T19:29:59.410Z,100363.16
2022-10-24T19:32:31.992Z,100356.15
2022-10-24T19:35:04.806Z,100349.48
2022-10-24T19:37:37.922Z,100348.97
2022-10-24T19:40:11.454Z,100350.85
2022-10-24T19:42:44.230Z,100345.89
2022-10-24T19:45:21.506Z,100350.70
2022-10-24T19:47:56.254Z,100347.61
2022-10-24T19:50:29.603Z,100349.55
2022-10-24T19:53:02.339Z,100352.97
2022-10-24T19:55:39.491Z,100352.82
2022-10-24T19:58:18.394Z,100363.66
2022-10-24T20:00:52.025Z,100356.05
2022-10-24T20:03:24.481Z,100352.69
2022-10-24T20:06:01.301Z,100354.75
2022-10-24T20:08:34.039Z,100352.75
2022-10-24T20:11:07.237Z,100352.11
2022-10-24T20:13:40.317Z,100352.45
2022-10-24T20:16:13.577Z,100344.00
2022-10-24T20:18:46.607Z,100343.34
2022-10-24T20:21:20.878Z,100340.27
2022-10-24T20:23:53.443Z,100336.33
2022-10-24T20:26:27.181Z,100336.33
2022-10-24T20:29:00.531Z,100340.41
2022-10-24T20:31:36.200Z,100344.35
2022-10-24T20:34:13.810Z,100345.72
2022-10-24T20:36:48.142Z,100341.97
2022-10-24T20:39:21.803Z,100338.42
2022-10-24T20:41:54.582Z,100341.34
2022-10-24T20:44:31.705Z,100334.73
2022-10-24T20:47:04.113Z,100337.11
2022-10-24T20:49:36.511Z,100341.05
2022-10-24T20:52:09.245Z,100335.95
2022-10-24T20:54:41.718Z,100342.75
2022-10-24T20:57:14.209Z,100338.33
2022-10-24T20:59:47.243Z,100328.94
2022-10-24T21:02:20.354Z,100331.17
2022-10-24T21:04:54.512Z,100328.08
2022-10-24T21:07:26.982Z,100328.36
2022-10-24T21:09:59.366Z,100328.51
2022-10-24T21:12:33.853Z,100326.45
2022-10-24T21:15:07.221Z,100326.25
2022-10-24T21:17:39.785Z,100324.31
2022-10-24T21:20:12.500Z,100328.54
2022-10-24T21:22:45.660Z,100326.45
2022-10-24T21:25:18.639Z,100319.50
2022-10-24T21:27:51.160Z,100324.45
2022-10-24T21:30:24.142Z,100319.22
2022-10-24T21:32:57.720Z,100322.52
2022-10-24T21:35:30.105Z,100325.97
2022-10-24T21:38:03.236Z,100318.84
2022-10-24T21:40:35.992Z,100315.28
2022-10-24T21:43:08.871Z,100324.66
2022-10-24T21:45:41.927Z,100319.22
2022-10-24T21:48:15.961Z,100325.50
2022-10-24T21:50:51.094Z,100324.13
2022-10-24T21:53:24.992Z,100325.00
2022-10-24T21:56:07.443Z,100317.62
2022-10-24T21:58:41.551Z,100323.39
2022-10-24T22:01:16.285Z,100323.88
2022-10-24T22:03:49.505Z,100320.95
2022-10-24T22:06:22.593Z,100317.70
2022-10-24T22:08:55.953Z,100323.16
2022-10-24T22:11:30.683Z,100321.64
2022-10-24T22:14:04.735Z,100322.37
2022-10-24T22:16:38.379Z,100326.80
2022-10-24T22:19:12.065Z,100329.52
2022-10-24T22:21:48.352Z,100323.59
2022-10-24T22:24:23.060Z,100329.03
2022-10-24T22:26:56.329Z,100326.80
2022-10-24T22:29:29.725Z,100325.09
2022-10-24T22:32:02.660Z,100328.98
2022-10-24T22:34:35.398Z,100324.66
2022-10-24T22:37:33.924Z,100321.24
2022-10-24T22:40:18.669Z,100322.08
2022-10-24T22:42:52.138Z,100324.16
2022-10-24T22:45:25.194Z,100325.67
2022-10-24T22:48:20.740Z,100326.89
2022-10-24T22:50:57.337Z,100316.49
2022-10-24T22:53:32.143Z,100316.64
2022-10-24T22:56:12.167Z,100312.20
2022-10-24T22:58:46.748Z,100324.80
2022-10-24T23:01:49.577Z,100320.23
2022-10-24T23:04:58.583Z,100313.91
2022-10-24T23:08:03.400Z,100308.47
2022-10-24T23:10:38.323Z,100308.70
2022-10-24T23:13:11.508Z,100306.97
2022-10-24T23:15:44.970Z,100308.18
2022-10-24T23:18:18.186Z,100304.97
2022-10-24T23:20:58.324Z,100300.88
2022-10-24T23:23:30.869Z,100297.67
2022-10-24T23:26:23.952Z,100299.03
2022-10-24T23:29:07.099Z,100306.33
2022-10-24T23:31:40.511Z,100302.54
2022-10-24T23:34:13.318Z,100298.25
2022-10-24T23:36:46.078Z,100295.16
2022-10-24T23:41:52.090Z,100301.20
2022-10-24T23:44:26.003Z,100297.41
2022-10-24T23:47:18.095Z,100294.26
2022-10-24T23:49:58.241Z,100297.64
2022-10-24T23:52:56.246Z,100298.14
2022-10-24T23:55:29.102Z,100290.12
2022-10-24T23:58:02.016Z,100284.33
